Time,TemperatureF,DewpointF,PressureIn,WindDirection,WindDirectionDegrees,WindSpeedMPH,WindSpeedGustMPH,Humidity,HourlyPrecipIn,Conditions,Clouds,dailyrainin,SoftwareType,DateUTC
2013-08-09 00:01:00,63.0,29.0,-100.00,SSE,157,4.0,9.0,27,0.00,,,0.00,,2013-08-09 07:01:00,
2013-08-09 00:12:00,63.0,29.0,-100.00,SSE,157,4.0,9.0,27,0.00,,,0.00,,2013-08-09 07:12:00,
2013-08-09 00:43:00,62.0,29.0,-100.00,SSE,166,3.0,7.0,28,0.00,,,0.00,,2013-08-09 07:43:00,
2013-08-09 00:53:00,62.0,29.0,-100.00,SSE,166,3.0,7.0,28,0.00,,,0.00,,2013-08-09 07:53:00,
2013-08-09 01:02:00,62.0,29.0,-100.00,SSE,166,3.0,7.0,28,0.00,,,0.00,,2013-08-09 08:02:00,
2013-08-09 01:11:00,62.0,29.0,-100.00,SSE,166,3.0,7.0,28,0.00,,,0.00,,2013-08-09 08:11:00,
2013-08-09 01:43:00,57.0,31.0,-100.00,SE,130,3.0,8.0,37,0.00,,,0.00,,2013-08-09 08:43:00,
2013-08-09 01:53:00,57.0,31.0,-100.00,SE,130,3.0,8.0,37,0.00,,,0.00,,2013-08-09 08:53:00,
2013-08-09 02:02:00,57.0,31.0,-100.00,SE,130,3.0,8.0,37,0.00,,,0.00,,2013-08-09 09:02:00,
2013-08-09 02:12:00,57.0,31.0,-100.00,SE,130,3.0,8.0,37,0.00,,,0.00,,2013-08-09 09:12:00,
2013-08-09 02:43:00,51.0,33.0,-100.00,ESE,123,1.0,4.0,49,0.00,,,0.00,,2013-08-09 09:43:00,
2013-08-09 02:52:00,51.0,33.0,-100.00,ESE,123,1.0,4.0,49,0.00,,,0.00,,2013-08-09 09:52:00,
2013-08-09 03:01:00,51.0,33.0,-100.00,ESE,123,1.0,4.0,49,0.00,,,0.00,,2013-08-09 10:01:00,
2013-08-09 03:12:00,51.0,33.0,-100.00,ESE,123,1.0,4.0,49,0.00,,,0.00,,2013-08-09 10:12:00,
2013-08-09 03:43:00,47.0,32.0,-100.00,ESE,104,2.0,4.0,55,0.00,,,0.00,,2013-08-09 10:43:00,
2013-08-09 03:53:00,47.0,32.0,-100.00,ESE,104,2.0,4.0,55,0.00,,,0.00,,2013-08-09 10:53:00,
2013-08-09 04:01:00,47.0,32.0,-100.00,ESE,104,2.0,4.0,55,0.00,,,0.00,,2013-08-09 11:01:00,
2013-08-09 04:11:00,47.0,32.0,-100.00,ESE,104,2.0,4.0,55,0.00,,,0.00,,2013-08-09 11:11:00,
2013-08-09 04:43:00,45.0,32.0,-100.00,ESE,117,4.0,5.0,60,0.00,,,0.00,,2013-08-09 11:43:00,
2013-08-09 04:53:00,45.0,32.0,-100.00,ESE,117,4.0,5.0,60,0.00,,,0.00,,2013-08-09 11:53:00,
2013-08-09 05:02:00,45.0,32.0,-100.00,ESE,117,4.0,5.0,60,0.00,,,0.00,,2013-08-09 12:02:00,
2013-08-09 05:12:00,45.0,32.0,-100.00,ESE,117,4.0,5.0,60,0.00,,,0.00,,2013-08-09 12:12:00,
2013-08-09 05:43:00,44.0,32.0,-100.00,ESE,102,2.0,3.0,63,0.00,,,0.00,,2013-08-09 12:43:00,
2013-08-09 05:52:00,44.0,32.0,-100.00,ESE,102,2.0,3.0,63,0.00,,,0.00,,2013-08-09 12:52:00,
2013-08-09 06:01:00,44.0,32.0,-100.00,ESE,102,2.0,3.0,63,0.00,,,0.00,,2013-08-09 13:01:00,
2013-08-09 06:12:00,44.0,32.0,-100.00,ESE,102,2.0,3.0,63,0.00,,,0.00,,2013-08-09 13:12:00,
2013-08-09 06:43:00,43.0,32.0,-100.00,East,95,2.0,3.0,64,0.00,,,0.00,,2013-08-09 13:43:00,
2013-08-09 06:52:00,43.0,32.0,-100.00,East,95,2.0,3.0,64,0.00,,,0.00,,2013-08-09 13:52:00,
2013-08-09 07:02:00,43.0,32.0,-100.00,East,95,2.0,3.0,64,0.00,,,0.00,,2013-08-09 14:02:00,
2013-08-09 07:11:00,43.0,32.0,-100.00,East,95,2.0,3.0,64,0.00,,,0.00,,2013-08-09 14:11:00,
2013-08-09 07:43:00,55.0,42.0,-100.00,ESE,102,2.0,4.0,62,0.00,,,0.00,,2013-08-09 14:43:00,
2013-08-09 07:53:00,55.0,42.0,-100.00,ESE,102,2.0,4.0,62,0.00,,,0.00,,2013-08-09 14:53:00,
2013-08-09 08:01:00,55.0,42.0,-100.00,ESE,102,2.0,4.0,62,0.00,,,0.00,,2013-08-09 15:01:00,
2013-08-09 08:11:00,55.0,42.0,-100.00,ESE,102,2.0,4.0,62,0.00,,,0.00,,2013-08-09 15:11:00,
2013-08-09 09:01:00,69.0,44.0,-100.00,NW,313,2.0,4.0,40,0.00,,,0.00,,2013-08-09 16:01:00,
2013-08-09 09:11:00,69.0,44.0,-100.00,NW,313,2.0,4.0,40,0.00,,,0.00,,2013-08-09 16:11:00,
2013-08-09 09:43:00,74.0,36.0,-100.00,SSE,165,6.0,11.0,25,0.00,,,0.00,,2013-08-09 16:43:00,
2013-08-09 09:53:00,74.0,36.0,-100.00,SSE,165,6.0,11.0,25,0.00,,,0.00,,2013-08-09 16:53:00,
2013-08-09 10:02:00,74.0,36.0,-100.00,SSE,165,6.0,11.0,25,0.00,,,0.00,,2013-08-09 17:02:00,
2013-08-09 10:11:00,74.0,36.0,-100.00,SSE,165,6.0,11.0,25,0.00,,,0.00,,2013-08-09 17:11:00,
2013-08-09 10:43:00,75.0,31.0,-100.00,South,187,6.0,17.0,20,0.00,,,0.00,,2013-08-09 17:43:00,
2013-08-09 10:52:00,75.0,31.0,-100.00,South,187,6.0,17.0,20,0.00,,,0.00,,2013-08-09 17:52:00,
2013-08-09 11:01:00,75.0,31.0,-100.00,South,187,6.0,17.0,20,0.00,,,0.00,,2013-08-09 18:01:00,
2013-08-09 11:11:00,75.0,31.0,-100.00,South,187,6.0,17.0,20,0.00,,,0.00,,2013-08-09 18:11:00,
2013-08-09 11:43:00,76.0,31.0,-100.00,WSW,250,8.0,16.0,19,0.00,,,0.00,,2013-08-09 18:43:00,
2013-08-09 11:53:00,76.0,31.0,-100.00,WSW,250,8.0,16.0,19,0.00,,,0.00,,2013-08-09 18:53:00,
2013-08-09 12:02:00,76.0,31.0,-100.00,WSW,250,8.0,16.0,19,0.00,,,0.00,,2013-08-09 19:02:00,
2013-08-09 12:11:00,76.0,31.0,-100.00,WSW,250,8.0,16.0,19,0.00,,,0.00,,2013-08-09 19:11:00,
2013-08-09 12:43:00,77.0,32.0,-100.00,South,182,7.0,15.0,19,0.00,,,0.00,,2013-08-09 19:43:00,
2013-08-09 12:52:00,77.0,32.0,-100.00,South,182,7.0,15.0,19,0.00,,,0.00,,2013-08-09 19:52:00,
2013-08-09 13:02:00,77.0,32.0,-100.00,South,182,7.0,15.0,19,0.00,,,0.00,,2013-08-09 20:02:00,
2013-08-09 13:11:00,77.0,32.0,-100.00,South,182,7.0,15.0,19,0.00,,,0.00,,2013-08-09 20:11:00,
2013-08-09 13:43:00,79.0,33.0,-100.00,SSE,168,7.0,20.0,19,0.00,,,0.00,,2013-08-09 20:43:00,
2013-08-09 13:52:00,79.0,33.0,-100.00,SSE,168,7.0,20.0,19,0.00,,,0.00,,2013-08-09 20:52:00,
2013-08-09 14:01:00,79.0,33.0,-100.00,SSE,168,7.0,20.0,19,0.00,,,0.00,,2013-08-09 21:01:00,
2013-08-09 14:12:00,79.0,33.0,-100.00,SSE,168,7.0,20.0,19,0.00,,,0.00,,2013-08-09 21:12:00,
2013-08-09 14:43:00,79.0,33.0,-100.00,South,169,7.0,17.0,19,0.00,,,0.00,,2013-08-09 21:43:00,
2013-08-09 14:52:00,79.0,33.0,-100.00,South,169,7.0,17.0,19,0.00,,,0.00,,2013-08-09 21:52:00,
2013-08-09 15:01:00,79.0,33.0,-100.00,South,169,7.0,17.0,19,0.00,,,0.00,,2013-08-09 22:01:00,
2013-08-09 15:11:00,79.0,33.0,-100.00,South,169,7.0,17.0,19,0.00,,,0.00,,2013-08-09 22:11:00,
2013-08-09 15:42:00,78.0,32.0,-100.00,South,175,4.0,19.0,19,0.00,,,0.00,,2013-08-09 22:42:00,
2013-08-09 15:52:00,78.0,32.0,-100.00,South,175,4.0,19.0,19,0.00,,,0.00,,2013-08-09 22:52:00,
2013-08-09 16:01:00,78.0,32.0,-100.00,South,175,4.0,19.0,19,0.00,,,0.00,,2013-08-09 23:01:00,
2013-08-09 16:11:00,78.0,32.0,-100.00,South,175,4.0,19.0,19,0.00,,,0.00,,2013-08-09 23:11:00,
2013-08-09 16:43:00,81.0,33.0,-100.00,SSE,149,5.0,25.0,18,0.00,,,0.00,,2013-08-09 23:43:00,
2013-08-09 16:52:00,81.0,33.0,-100.00,SSE,149,5.0,25.0,18,0.00,,,0.00,,2013-08-09 23:52:00,
2013-08-09 17:01:00,81.0,33.0,-100.00,SSE,149,5.0,25.0,18,0.00,,,0.00,,2013-08-10 00:01:00,
2013-08-09 17:11:00,81.0,33.0,-100.00,SSE,149,5.0,25.0,18,0.00,,,0.00,,2013-08-10 00:11:00,
2013-08-09 17:43:00,76.0,29.0,-100.00,SW,235,6.0,16.0,18,0.00,,,0.00,,2013-08-10 00:43:00,
2013-08-09 17:52:00,76.0,29.0,-100.00,SW,235,6.0,16.0,18,0.00,,,0.00,,2013-08-10 00:52:00,
2013-08-09 18:01:00,76.0,29.0,-100.00,SW,235,6.0,16.0,18,0.00,,,0.00,,2013-08-10 01:01:00,
2013-08-09 18:11:00,76.0,29.0,-100.00,SW,235,6.0,16.0,18,0.00,,,0.00,,2013-08-10 01:11:00,
2013-08-09 18:42:00,73.0,31.0,-100.00,South,172,4.0,11.0,21,0.00,,,0.00,,2013-08-10 01:42:00,
2013-08-09 18:52:00,73.0,31.0,-100.00,South,172,4.0,11.0,21,0.00,,,0.00,,2013-08-10 01:52:00,
2013-08-09 19:03:00,73.0,31.0,-100.00,South,172,4.0,11.0,21,0.00,,,0.00,,2013-08-10 02:03:00,
2013-08-09 19:11:00,73.0,31.0,-100.00,South,172,4.0,11.0,21,0.00,,,0.00,,2013-08-10 02:11:00,
2013-08-09 19:42:00,70.0,33.0,-100.00,SSE,154,4.0,14.0,25,0.00,,,0.00,,2013-08-10 02:42:00,
2013-08-09 19:52:00,70.0,33.0,-100.00,SSE,154,4.0,14.0,25,0.00,,,0.00,,2013-08-10 02:52:00,
2013-08-09 20:01:00,70.0,33.0,-100.00,SSE,154,4.0,14.0,25,0.00,,,0.00,,2013-08-10 03:01:00,
2013-08-09 20:11:00,70.0,33.0,-100.00,SSE,154,4.0,14.0,25,0.00,,,0.00,,2013-08-10 03:11:00,
2013-08-09 20:42:00,65.0,34.0,-100.00,SSW,193,3.0,7.0,31,0.00,,,0.00,,2013-08-10 03:42:00,
2013-08-09 20:52:00,65.0,34.0,-100.00,SSW,193,3.0,7.0,31,0.00,,,0.00,,2013-08-10 03:52:00,
2013-08-09 21:01:00,65.0,34.0,-100.00,SSW,193,3.0,7.0,31,0.00,,,0.00,,2013-08-10 04:01:00,
2013-08-09 21:12:00,65.0,34.0,-100.00,SSW,193,3.0,7.0,31,0.00,,,0.00,,2013-08-10 04:12:00,
2013-08-09 21:43:00,60.0,34.0,-100.00,SSE,152,3.0,5.0,38,0.00,,,0.00,,2013-08-10 04:43:00,
2013-08-09 21:53:00,60.0,34.0,-100.00,SSE,152,3.0,5.0,38,0.00,,,0.00,,2013-08-10 04:53:00,
2013-08-09 22:02:00,60.0,34.0,-100.00,SSE,152,3.0,5.0,38,0.00,,,0.00,,2013-08-10 05:02:00,
2013-08-09 22:11:00,60.0,34.0,-100.00,SSE,152,3.0,5.0,38,0.00,,,0.00,,2013-08-10 05:11:00,
2013-08-09 22:43:00,56.0,38.0,-100.00,SE,143,1.0,5.0,50,0.00,,,0.00,,2013-08-10 05:43:00,
2013-08-09 22:52:00,56.0,38.0,-100.00,SE,143,1.0,5.0,50,0.00,,,0.00,,2013-08-10 05:52:00,
2013-08-09 23:02:00,56.0,38.0,-100.00,SE,143,1.0,5.0,50,0.00,,,0.00,,2013-08-10 06:02:00,
2013-08-09 23:11:00,56.0,38.0,-100.00,SE,143,1.0,5.0,50,0.00,,,0.00,,2013-08-10 06:11:00,
2013-08-09 23:44:00,53.0,35.0,-100.00,ENE,70,0.0,4.0,51,0.00,,,0.00,,2013-08-10 06:44:00,
2013-08-09 23:53:00,53.0,35.0,-100.00,ENE,70,0.0,4.0,51,0.00,,,0.00,,2013-08-10 06:53:00,